Airfield :







YOU CAN JOIN US ON...

 
LOGIN :

Register | Disclaimer

   EN    FR    IT 

 









Legend :    VFR   Marginal VFR   IFR   Intensive IFR   Very Intensive IFR
Visi :
Ceiling :
>= 8 km
>= 3000ft
5 to 8 km
1000 to 3000 ft
1500m to 5 km
500 to 1000 ft
800 to 1500m
200 to 500 ft
< 800m
< 200 ft
Symbols :   Thunderstorms  Fog  Heavy snow  Heavy precipitations  Wind > 20 kt






- Airport Elevation : 285 ft
- IATA code : ALB


KALB - Albany International

CURRENT METAR :
  • 200751Z 28013KT 10SM OVC036 02/M03 A2999 RMK AO2 SLP158 T00221028

EXPIRED METARs :
  • 200651Z 31011KT 10SM OVC040 03/M02 A2995 RMK AO2 SLP145 T00331022
  • 200551Z 00000KT 10SM OVC043 02/M03 A2993 RMK AO2 SLP138 4/002 T00221028 10033 20006 51012

TAF KALB
Valid from the 20 at 06:00 until the 21 at 06:00 UTC


200549Z 2006/2106 30006KT P6SM OVC050
FM200900 31008KT P6SM BKN040 BKN100
FM201300 31010KT P6SM SCT100 BKN250
FM201600 32010G16KT P6SM SKC
FM210000 32008KT P6SM SKC
KZBW FIR / North America



MET'MAP, your aeronautical weather chart ! - Copyright ORBIFLY December 2007 - Disclaimer

ORBIFLY MET'MAP TEAM :

Programming & Development : Alexandra Zaïnal
Concept & original design : Baudouin d'Aumeries
Assistance for programming : Marc-Olivier Méhu
Technical & hardware support : Manuel Goepfert

Contact : metmap@orbifly.com




SOURCES & CREDITS :

   NOAA